Time;durP1;ratioP1;P1;durP2;ratioP2;P2;SDS_P1;SDS_P2;PMS_P1;PMS_P2;Temp;Humidity;BMP_temperature;BMP_pressure;BME280_temperature;BME280_humidity;BME280_pressure;Samples;Min_cycle;Max_cycle;Signal;HPM_P1;HPM_P2
2022/01/22 00:00:31;;;;;;;9.93;6.67;;;-5.20;99.90;;;;;;5099878;28;20166;-79
2022/01/22 00:02:58;;;;;;;12.50;7.80;;;-5.80;99.90;;;;;;5099727;28;20162;-79
2022/01/22 00:05:23;;;;;;;11.57;7.37;;;-5.80;99.90;;;;;;5100066;28;20193;-76
2022/01/22 00:07:50;;;;;;;14.67;7.03;;;-5.50;99.90;;;;;;5100287;28;20424;-79
2022/01/22 00:10:19;;;;;;;8.90;6.03;;;-5.70;99.90;;;;;;5099947;28;20181;-76
2022/01/22 00:15:19;;;;;;;10.53;6.33;;;-5.70;99.90;;;;;;5100879;28;20401;-79
2022/01/22 00:17:52;;;;;;;13.33;6.77;;;-6.00;99.90;;;;;;5100853;28;20690;-78
2022/01/22 00:20:21;;;;;;;17.00;6.73;;;-5.70;99.90;;;;;;5100433;28;20852;-77
2022/01/22 00:22:46;;;;;;;11.13;7.07;;;-4.60;99.90;;;;;;5100185;28;20393;-75
2022/01/22 00:25:14;;;;;;;12.40;6.90;;;-5.90;99.90;;;;;;5100140;28;20851;-77
2022/01/22 00:27:42;;;;;;;11.63;6.73;;;-5.80;99.90;;;;;;5100109;28;20169;-74
2022/01/22 00:30:11;;;;;;;10.13;8.37;;;-5.80;99.90;;;;;;5099531;28;20400;-76
2022/01/22 00:32:37;;;;;;;11.13;7.50;;;-5.80;99.90;;;;;;5098862;28;20505;-73
2022/01/22 00:35:05;;;;;;;13.90;6.87;;;-5.80;99.90;;;;;;5096928;28;20447;-75
2022/01/22 00:37:32;;;;;;;9.07;6.90;;;-5.60;99.90;;;;;;5097806;28;20491;-73
2022/01/22 00:39:58;;;;;;;7.53;6.20;;;-5.40;99.90;;;;;;5097622;28;20425;-72
2022/01/22 00:42:24;;;;;;;8.20;7.33;;;-5.60;99.90;;;;;;5097841;28;20426;-74
2022/01/22 00:44:51;;;;;;;12.73;7.60;;;-5.60;99.90;;;;;;5096491;28;20704;-73
2022/01/22 00:47:19;;;;;;;13.13;6.73;;;-5.40;99.90;;;;;;5096045;28;20865;-72
2022/01/22 00:49:46;;;;;;;10.90;7.13;;;-5.70;99.90;;;;;;5097286;28;20472;-73
2022/01/22 00:52:13;;;;;;;9.40;6.83;;;-5.40;99.90;;;;;;5097504;28;20400;-73
2022/01/22 00:54:38;;;;;;;8.23;6.73;;;-5.80;99.90;;;;;;5097348;28;20809;-73
2022/01/22 00:57:04;;;;;;;10.83;6.53;;;-3.40;99.90;;;;;;5097211;28;20413;-73
2022/01/22 00:59:30;;;;;;;11.00;8.37;;;-5.70;99.90;;;;;;5097273;28;20201;-74
2022/01/22 01:01:58;;;;;;;14.63;6.73;;;-5.40;99.90;;;;;;5096882;28;20202;-74
2022/01/22 01:04:23;;;;;;;8.00;7.13;;;-5.60;99.90;;;;;;5097336;28;20177;-74
2022/01/22 01:06:49;;;;;;;12.10;7.53;;;-5.90;99.90;;;;;;5097144;28;20457;-74
2022/01/22 01:09:17;;;;;;;10.63;7.23;;;-5.80;99.90;;;;;;5096878;28;20181;-76
2022/01/22 01:11:49;;;;;;;15.00;8.63;;;-5.60;99.90;;;;;;5097621;28;20203;-74
2022/01/22 01:14:22;;;;;;;23.47;8.97;;;-6.10;99.90;;;;;;5097297;28;20404;-74
2022/01/22 01:33:30;;;;;;;8.40;7.10;;;-3.60;99.90;;;;;;5097587;28;20422;-74
2022/01/22 01:35:56;;;;;;;14.27;8.33;;;-5.80;99.90;;;;;;5096770;28;20428;-73
2022/01/22 01:38:23;;;;;;;10.77;7.77;;;-5.30;99.90;;;;;;5096168;28;20471;-75
2022/01/22 01:41:03;;;;;;;14.90;8.27;;;-5.20;99.90;;;;;;5097949;28;20256;-75
2022/01/22 01:43:34;;;;;;;8.83;7.97;;;-5.40;99.90;;;;;;5097603;28;20522;-74
2022/01/22 01:46:00;;;;;;;8.73;7.80;;;-5.10;99.90;;;;;;5096382;28;20537;-72
2022/01/22 01:48:30;;;;;;;10.67;8.43;;;-5.50;99.90;;;;;;5096943;28;20441;-78
2022/01/22 01:50:58;;;;;;;15.57;8.93;;;-6.00;99.90;;;;;;5097270;28;20487;-74
2022/01/22 01:58:23;;;;;;;11.50;8.53;;;-5.80;99.90;;;;;;5097163;28;20432;-74
2022/01/22 02:00:49;;;;;;;10.03;7.90;;;-5.90;99.90;;;;;;5096124;28;20475;-75
2022/01/22 02:03:15;;;;;;;11.67;8.37;;;-5.70;99.90;;;;;;5096855;28;20392;-73
2022/01/22 02:05:41;;;;;;;12.13;8.53;;;-4.50;99.90;;;;;;5095968;28;20971;-79
2022/01/22 02:08:08;;;;;;;13.03;9.30;;;-5.70;99.90;;;;;;5096189;28;20265;-73
2022/01/22 02:10:38;;;;;;;14.87;8.03;;;-5.60;99.90;;;;;;5097122;28;20404;-74
2022/01/22 02:24:04;;;;;;;11.53;8.97;;;-5.90;99.90;;;;;;5101250;28;20452;-74
2022/01/22 02:26:30;;;;;;;10.53;7.97;;;-6.00;99.90;;;;;;5101322;28;20476;-75
2022/01/22 02:28:57;;;;;;;9.63;7.83;;;-4.70;99.90;;;;;;5101113;28;20397;-78
2022/01/22 02:31:35;;;;;;;10.37;8.10;;;-5.60;99.90;;;;;;5101303;28;20175;-76
2022/01/22 02:34:33;;;;;;;15.30;9.27;;;-5.30;99.90;;;;;;5101153;28;20400;-75
2022/01/22 02:39:41;;;;;;;11.80;8.73;;;-4.50;99.90;;;;;;5101516;28;20437;-76
2022/01/22 02:42:07;;;;;;;13.27;9.90;;;-5.00;99.90;;;;;;5101579;28;20499;-74
2022/01/22 02:44:46;;;;;;;12.30;10.20;;;-5.80;99.90;;;;;;5101242;28;20413;-77
2022/01/22 02:47:15;;;;;;;10.73;8.97;;;-3.80;99.90;;;;;;5101699;28;20193;-76
2022/01/22 02:49:41;;;;;;;14.67;10.83;;;-4.60;99.90;;;;;;5100363;28;20407;-78
2022/01/22 02:52:08;;;;;;;14.27;9.67;;;-3.90;99.90;;;;;;5101889;28;20398;-78
2022/01/22 02:54:36;;;;;;;15.00;9.47;;;-5.50;99.90;;;;;;5102256;28;20836;-77
2022/01/22 02:57:02;;;;;;;11.47;10.27;;;-4.10;99.90;;;;;;5100900;28;20878;-75
2022/01/22 02:59:30;;;;;;;12.97;9.00;;;-6.00;99.90;;;;;;5101152;28;20412;-75
2022/01/22 03:01:56;;;;;;;15.90;10.60;;;-5.50;99.90;;;;;;5101701;28;20412;-80
2022/01/22 03:04:22;;;;;;;13.77;10.10;;;-4.50;99.90;;;;;;5102390;28;20836;-79
2022/01/22 03:06:49;;;;;;;14.90;10.87;;;-4.40;99.90;;;;;;5100799;28;20250;-79
2022/01/22 03:09:17;;;;;;;14.13;10.80;;;-5.20;99.90;;;;;;5102277;28;20184;-78
2022/01/22 03:20:05;;;;;;;13.43;10.57;;;-5.20;99.90;;;;;;5102380;28;20414;-77
2022/01/22 03:27:45;;;;;;;13.10;11.47;;;-5.10;99.90;;;;;;5101711;28;20395;-80
2022/01/22 03:30:11;;;;;;;11.77;10.47;;;-5.40;99.90;;;;;;5100835;28;20869;-79
2022/01/22 03:32:42;;;;;;;16.90;11.33;;;-5.20;99.90;;;;;;5100953;28;20197;-80
2022/01/22 03:35:25;;;;;;;14.77;11.37;;;-5.60;99.90;;;;;;5102104;28;20172;-80
2022/01/22 03:37:55;;;;;;;16.20;12.40;;;-5.70;99.90;;;;;;5101751;28;20400;-80
2022/01/22 03:40:25;;;;;;;15.40;10.77;;;-5.50;99.90;;;;;;5100613;28;20413;-80
2022/01/22 03:42:53;;;;;;;14.13;11.33;;;-5.10;99.90;;;;;;5101872;28;20509;-78
2022/01/22 03:45:23;;;;;;;17.73;12.90;;;-4.40;99.90;;;;;;5101646;28;20724;-80
2022/01/22 03:47:49;;;;;;;13.90;12.20;;;-5.40;99.90;;;;;;5101134;28;20402;-79
2022/01/22 03:50:18;;;;;;;18.77;12.20;;;-5.20;99.90;;;;;;5100725;28;20402;-79
2022/01/22 03:52:43;;;;;;;19.03;13.27;;;-5.20;99.90;;;;;;5100115;28;20220;-75
2022/01/22 03:55:20;;;;;;;17.33;13.17;;;-5.40;99.90;;;;;;5100205;28;20398;-76
2022/01/22 03:57:46;;;;;;;16.83;13.33;;;-5.60;99.90;;;;;;5099166;28;20278;-75
2022/01/22 04:00:12;;;;;;;19.80;12.40;;;-5.40;99.90;;;;;;5098548;28;20498;-76
2022/01/22 04:05:05;;;;;;;16.97;12.93;;;-5.70;99.90;;;;;;5099256;28;20399;-75
2022/01/22 04:10:03;;;;;;;18.03;11.67;;;-5.60;99.90;;;;;;5099398;28;20401;-75
2022/01/22 04:15:18;;;;;;;19.80;12.57;;;-6.10;99.90;;;;;;5099693;28;20393;-75
2022/01/22 04:25:46;;;;;;;15.40;12.97;;;-5.40;99.90;;;;;;5100412;28;20456;-78
2022/01/22 04:28:12;;;;;;;18.20;14.83;;;-6.00;99.90;;;;;;5099831;28;20417;-81
2022/01/22 04:30:46;;;;;;;17.20;14.13;;;-3.90;99.90;;;;;;5102022;28;20460;-80
2022/01/22 04:33:12;;;;;;;19.17;14.80;;;-5.80;99.90;;;;;;5101958;28;20438;-78
2022/01/22 04:35:38;;;;;;;17.80;13.43;;;-6.00;99.90;;;;;;5101352;28;20397;-80
2022/01/22 04:38:04;;;;;;;23.50;13.40;;;-5.10;99.90;;;;;;5100273;28;20188;-79
2022/01/22 04:40:36;;;;;;;30.20;14.00;;;-5.20;99.90;;;;;;5101372;28;20171;-80
2022/01/22 04:43:05;;;;;;;18.03;14.07;;;-6.00;99.90;;;;;;5101465;28;20485;-81
2022/01/22 04:56:18;;;;;;;23.60;15.00;;;-3.50;99.90;;;;;;5101358;28;20404;-79
2022/01/22 04:58:44;;;;;;;22.40;14.33;;;-4.20;99.90;;;;;;5101300;28;20457;-81
2022/01/22 05:01:10;;;;;;;22.10;15.00;;;-3.60;99.90;;;;;;5100146;28;20627;-80
2022/01/22 05:03:36;;;;;;;17.43;13.77;;;-5.70;99.90;;;;;;5100913;28;20177;-80
2022/01/22 05:06:06;;;;;;;20.10;14.87;;;-3.50;99.90;;;;;;5099870;28;20229;-81
2022/01/22 05:08:32;;;;;;;20.63;15.43;;;-3.10;99.90;;;;;;5099757;28;20783;-79
2022/01/22 05:10:59;;;;;;;22.33;16.70;;;-3.50;99.90;;;;;;5099753;28;20415;-78
2022/01/22 05:13:26;;;;;;;21.27;14.67;;;-4.90;99.90;;;;;;5100732;28;20169;-78
2022/01/22 05:15:52;;;;;;;23.20;14.33;;;-4.10;99.90;;;;;;5100941;28;20812;-79
2022/01/22 05:18:18;;;;;;;21.97;15.23;;;-3.40;99.90;;;;;;5100725;28;20402;-79
2022/01/22 05:20:51;;;;;;;21.27;15.27;;;-2.80;99.90;;;;;;5100597;28;20174;-80
2022/01/22 05:23:21;;;;;;;18.73;14.37;;;-5.60;99.90;;;;;;5100169;28;20558;-78
2022/01/22 05:25:54;;;;;;;19.23;15.23;;;-5.80;99.90;;;;;;5100630;28;20453;-83
2022/01/22 05:37:04;;;;;;;21.53;16.60;;;-6.00;99.90;;;;;;5075424;28;20415;-75
2022/01/22 05:39:32;;;;;;;19.67;14.97;;;-6.00;99.90;;;;;;5111248;28;20905;-76
2022/01/22 05:42:00;;;;;;;20.40;16.00;;;-5.10;99.90;;;;;;5096822;28;20411;-78
2022/01/22 05:44:32;;;;;;;16.97;15.10;;;-3.70;99.90;;;;;;5099309;28;20453;-81
2022/01/22 05:47:04;;;;;;;23.17;17.00;;;-5.00;99.90;;;;;;5100178;28;20445;-79
2022/01/22 05:49:34;;;;;;;22.30;17.30;;;-5.20;99.90;;;;;;5099514;28;20464;-81
2022/01/22 05:52:03;;;;;;;23.50;17.93;;;-4.80;99.90;;;;;;5098694;28;20411;-76
2022/01/22 05:59:40;;;;;;;18.60;15.83;;;-5.50;99.90;;;;;;5101796;28;20406;-78
2022/01/22 06:02:11;;;;;;;21.23;16.20;;;-5.30;99.90;;;;;;5097359;28;20425;-80
2022/01/22 06:04:37;;;;;;;26.30;16.60;;;-4.90;99.90;;;;;;5098938;28;20399;-81
2022/01/22 06:07:05;;;;;;;19.80;15.27;;;-5.10;99.90;;;;;;5098770;28;20490;-76
2022/01/22 06:09:33;;;;;;;20.77;16.83;;;-3.90;99.90;;;;;;5096889;28;20854;-78
2022/01/22 06:14:35;;;;;;;19.50;15.80;;;-4.20;99.90;;;;;;5097671;28;20683;-75
2022/01/22 06:17:02;;;;;;;25.33;17.47;;;-4.90;99.90;;;;;;5097099;28;20485;-75
2022/01/22 06:19:27;;;;;;;22.53;16.70;;;-4.90;99.90;;;;;;5096286;28;20426;-77
2022/01/22 06:21:54;;;;;;;21.10;18.07;;;-6.60;99.90;;;;;;5096763;28;20409;-76
2022/01/22 06:24:21;;;;;;;23.83;16.83;;;-5.80;99.90;;;;;;5097097;28;20177;-74
2022/01/22 06:26:47;;;;;;;21.63;16.80;;;-5.80;99.90;;;;;;5097177;28;20446;-75
2022/01/22 06:29:15;;;;;;;20.67;15.90;;;-5.90;99.90;;;;;;5097301;28;20408;-75
2022/01/22 06:31:42;;;;;;;26.27;17.80;;;-4.50;99.90;;;;;;5097136;28;20176;-75
2022/01/22 06:34:08;;;;;;;28.77;18.07;;;-6.40;99.90;;;;;;5097176;28;20492;-74
2022/01/22 06:36:34;;;;;;;26.20;19.27;;;-5.90;99.90;;;;;;5097195;28;20407;-75
2022/01/22 06:39:11;;;;;;;23.43;18.63;;;-5.60;99.90;;;;;;5097124;28;20451;-78
2022/01/22 06:41:45;;;;;;;21.93;17.30;;;-4.90;99.90;;;;;;5097149;28;20177;-76
2022/01/22 06:44:19;;;;;;;21.90;17.13;;;-5.50;99.90;;;;;;5097087;28;20518;-74
2022/01/22 06:46:48;;;;;;;20.10;16.63;;;-5.60;99.90;;;;;;5096868;28;20455;-75
2022/01/22 06:49:14;;;;;;;32.43;19.97;;;-5.60;99.90;;;;;;5095866;28;20453;-77
2022/01/22 06:51:40;;;;;;;31.83;19.87;;;-6.00;99.90;;;;;;5097125;28;20390;-78
2022/01/22 06:54:09;;;;;;;25.20;18.60;;;-6.20;99.90;;;;;;5096487;28;20426;-76
2022/01/22 06:56:35;;;;;;;26.53;18.53;;;-5.00;99.90;;;;;;5097446;28;20488;-79
2022/01/22 06:59:02;;;;;;;25.47;18.80;;;-5.60;99.90;;;;;;5097570;28;20854;-76
2022/01/22 07:01:28;;;;;;;25.87;18.37;;;-5.50;99.90;;;;;;5097397;28;20177;-75
2022/01/22 07:03:56;;;;;;;22.87;19.60;;;-5.80;99.90;;;;;;5095803;28;20424;-77
2022/01/22 07:06:22;;;;;;;22.13;17.47;;;-4.00;99.90;;;;;;5098115;28;20679;-76
2022/01/22 07:08:49;;;;;;;23.77;18.50;;;-6.00;99.90;;;;;;5100892;28;20406;-76
2022/01/22 07:11:15;;;;;;;25.30;18.67;;;-5.90;99.90;;;;;;5099562;28;20418;-76
2022/01/22 07:13:41;;;;;;;22.93;17.80;;;-4.30;99.90;;;;;;5100274;28;20402;-75
2022/01/22 07:16:08;;;;;;;26.43;20.07;;;-3.20;99.90;;;;;;5099760;28;20415;-75
2022/01/22 07:18:34;;;;;;;25.10;20.23;;;-4.30;99.90;;;;;;5098091;28;20426;-75
2022/01/22 07:21:08;;;;;;;27.83;19.60;;;-4.90;99.90;;;;;;5099367;28;20410;-75
2022/01/22 07:26:00;;;;;;;27.23;19.83;;;-5.20;99.90;;;;;;5098934;28;20613;-73
2022/01/22 07:28:26;;;;;;;27.17;19.37;;;-3.50;99.90;;;;;;5098973;28;20173;-74
2022/01/22 07:30:52;;;;;;;30.03;18.67;;;-5.60;99.90;;;;;;5099082;28;20402;-74
2022/01/22 07:33:20;;;;;;;25.40;19.23;;;-4.00;99.90;;;;;;5097896;28;20177;-73
2022/01/22 07:35:47;;;;;;;31.63;19.47;;;-5.50;99.90;;;;;;5097836;28;20412;-75
2022/01/22 07:38:14;;;;;;;26.93;21.23;;;-5.70;99.90;;;;;;5098988;28;20426;-75
2022/01/22 07:40:40;;;;;;;24.37;19.90;;;-5.80;99.90;;;;;;5099396;28;20500;-72
2022/01/22 07:43:05;;;;;;;29.47;19.47;;;-3.40;99.90;;;;;;5099663;28;20423;-75
2022/01/22 07:45:31;;;;;;;24.37;19.07;;;-4.50;99.90;;;;;;5099764;28;20457;-73
2022/01/22 07:47:57;;;;;;;32.83;20.93;;;-5.60;99.90;;;;;;5098804;28;20593;-74
2022/01/22 07:50:23;;;;;;;23.93;19.50;;;-5.50;99.90;;;;;;5099073;28;20167;-73
2022/01/22 07:52:49;;;;;;;30.03;21.63;;;-5.20;99.90;;;;;;5099386;28;20170;-73
2022/01/22 07:55:20;;;;;;;27.67;21.00;;;-3.80;99.90;;;;;;5099959;28;20403;-75
2022/01/22 07:57:46;;;;;;;30.40;19.03;;;-3.40;99.90;;;;;;5099991;28;20462;-73
2022/01/22 08:00:14;;;;;;;25.77;19.30;;;-4.70;99.90;;;;;;5099592;28;20398;-75
2022/01/22 08:02:40;;;;;;;27.03;17.97;;;-5.60;99.90;;;;;;5099625;28;20478;-75
2022/01/22 08:05:07;;;;;;;25.17;20.07;;;-5.70;99.90;;;;;;5100343;28;20404;-74
2022/01/22 08:07:32;;;;;;;25.53;18.30;;;-5.20;99.90;;;;;;5099667;28;20202;-78
2022/01/22 08:10:02;;;;;;;24.67;18.20;;;-3.70;99.90;;;;;;5100695;28;20178;-79
2022/01/22 08:12:28;;;;;;;25.53;19.67;;;-5.20;99.90;;;;;;5097848;28;20172;-78
2022/01/22 08:14:54;;;;;;;27.17;18.80;;;-4.80;99.90;;;;;;5087574;28;20186;-73
2022/01/22 08:17:20;;;;;;;27.63;18.17;;;-6.00;99.90;;;;;;5086283;28;20471;-77
2022/01/22 08:19:46;;;;;;;27.70;21.20;;;-5.40;99.90;;;;;;5099368;28;20178;-77
2022/01/22 08:22:12;;;;;;;27.10;18.60;;;-5.20;99.90;;;;;;5092416;28;20175;-83
2022/01/22 08:24:38;;;;;;;31.97;19.70;;;-5.70;99.90;;;;;;5089170;28;20190;-76
2022/01/22 08:27:19;;;;;;;30.87;20.63;;;-6.10;99.90;;;;;;5098285;28;20462;-82
2022/01/22 08:29:44;;;;;;;24.00;17.00;;;-5.50;99.90;;;;;;5097231;28;20170;-76
2022/01/22 08:37:27;;;;;;;31.60;18.87;;;-6.10;99.90;;;;;;5098817;28;20398;-75
2022/01/22 08:39:53;;;;;;;23.63;17.87;;;-3.80;99.90;;;;;;5098251;28;20438;-78
2022/01/22 08:42:20;;;;;;;21.67;18.90;;;-6.20;99.90;;;;;;5098456;28;20234;-77
2022/01/22 08:44:47;;;;;;;22.70;17.07;;;-3.80;99.90;;;;;;5096165;28;20174;-75
2022/01/22 08:47:14;;;;;;;23.60;17.27;;;-5.70;99.90;;;;;;5097440;28;20206;-77
2022/01/22 08:49:41;;;;;;;23.73;19.47;;;-4.20;99.90;;;;;;5097754;28;20543;-74
2022/01/22 08:52:15;;;;;;;27.53;20.00;;;-6.10;99.90;;;;;;5097677;28;20173;-74
2022/01/22 08:54:42;;;;;;;26.63;21.23;;;-5.90;99.90;;;;;;5095791;28;20448;-77
2022/01/22 08:57:08;;;;;;;30.60;18.23;;;-5.10;99.90;;;;;;5098175;28;20784;-74
2022/01/22 08:59:35;;;;;;;27.83;20.47;;;-5.20;99.90;;;;;;5097597;28;20494;-76
2022/01/22 09:02:03;;;;;;;23.67;18.73;;;-6.20;99.90;;;;;;5097789;28;20177;-73
2022/01/22 09:04:28;;;;;;;18.17;16.20;;;-6.60;99.90;;;;;;5097446;28;20438;-77
2022/01/22 09:06:54;;;;;;;27.87;19.10;;;-6.50;99.90;;;;;;5095986;28;20482;-75
2022/01/22 09:09:28;;;;;;;21.10;16.87;;;-5.20;99.90;;;;;;5098068;28;20340;-74
2022/01/22 09:11:57;;;;;;;22.27;19.13;;;-6.10;99.90;;;;;;5080556;28;20244;-75
2022/01/22 09:14:24;;;;;;;24.63;19.10;;;-5.80;99.90;;;;;;5095510;28;20422;-75
2022/01/22 09:16:52;;;;;;;27.60;19.30;;;-6.00;99.90;;;;;;5097070;28;20505;-76
2022/01/22 09:19:32;;;;;;;28.97;19.70;;;-3.00;99.90;;;;;;5097838;28;20396;-76
2022/01/22 09:21:59;;;;;;;25.27;18.27;;;-4.70;99.90;;;;;;5095355;28;20447;-76
2022/01/22 09:24:25;;;;;;;26.63;17.03;;;-5.40;99.90;;;;;;5097437;28;20170;-74
2022/01/22 09:26:51;;;;;;;25.50;19.03;;;-5.30;99.90;;;;;;5096132;28;20208;-75
2022/01/22 09:29:17;;;;;;;21.97;18.27;;;-5.40;99.90;;;;;;5095701;28;20566;-75
2022/01/22 09:31:44;;;;;;;26.87;20.03;;;-5.20;99.90;;;;;;5096797;28;20166;-75
2022/01/22 09:34:10;;;;;;;26.67;17.43;;;-5.40;99.90;;;;;;5093160;28;20254;-76
2022/01/22 09:36:36;;;;;;;22.73;18.73;;;-4.60;99.90;;;;;;5087810;28;20190;-76
2022/01/22 09:39:04;;;;;;;28.27;19.10;;;-6.50;99.90;;;;;;5077042;28;20549;-77
2022/01/22 09:41:30;;;;;;;29.83;18.97;;;-5.20;99.90;;;;;;5089611;28;20248;-74
2022/01/22 09:43:56;;;;;;;23.67;18.80;;;-6.20;99.90;;;;;;5088631;28;20600;-74
2022/01/22 09:46:25;;;;;;;26.90;19.37;;;-6.00;99.90;;;;;;5083786;28;20202;-73
2022/01/22 09:49:01;;;;;;;25.40;19.07;;;-5.70;99.90;;;;;;5088158;28;20262;-77
2022/01/22 09:51:26;;;;;;;27.83;18.17;;;-6.40;99.90;;;;;;5081623;28;20212;-74
2022/01/22 09:53:53;;;;;;;27.83;18.83;;;-6.70;99.90;;;;;;5091788;28;20206;-73
2022/01/22 09:56:21;;;;;;;23.40;16.87;;;-5.70;99.90;;;;;;5092328;28;20662;-74
2022/01/22 09:58:48;;;;;;;25.07;18.03;;;-5.60;99.90;;;;;;5092329;28;20194;-76
2022/01/22 10:01:33;;;;;;;26.10;17.27;;;-5.80;99.90;;;;;;5087194;28;20179;-74
2022/01/22 10:04:01;;;;;;;25.33;18.97;;;-5.90;99.90;;;;;;5095695;28;20175;-75
2022/01/22 10:06:30;;;;;;;22.73;17.63;;;-5.10;99.90;;;;;;5094012;28;20210;-75
2022/01/22 10:09:15;;;;;;;23.30;17.13;;;-6.30;99.90;;;;;;5076625;28;20450;-78
2022/01/22 10:11:42;;;;;;;24.20;17.50;;;-6.70;99.90;;;;;;5082076;28;20167;-76
2022/01/22 10:14:12;;;;;;;30.90;20.63;;;-4.70;99.90;;;;;;5086975;28;20189;-77
2022/01/22 10:16:39;;;;;;;26.77;19.80;;;-6.40;99.90;;;;;;5079639;28;20197;-78
2022/01/22 10:19:20;;;;;;;21.83;17.73;;;-5.90;99.90;;;;;;5075780;28;20408;-78
2022/01/22 10:21:53;;;;;;;20.33;16.63;;;-5.60;99.90;;;;;;5084118;28;20189;-80
2022/01/22 10:24:36;;;;;;;25.90;18.77;;;-5.90;99.90;;;;;;5084234;28;20178;-78
2022/01/22 10:30:00;;;;;;;22.57;17.17;;;-5.90;99.90;;;;;;5077514;28;20185;-80
2022/01/22 10:32:39;;;;;;;26.30;17.60;;;-5.70;99.90;;;;;;5077237;28;20521;-79
2022/01/22 10:35:13;;;;;;;25.60;17.40;;;-5.60;99.90;;;;;;5109939;28;20243;-81
2022/01/22 10:37:39;;;;;;;24.73;18.30;;;-5.70;99.90;;;;;;5083664;28;20187;-80
2022/01/22 10:40:22;;;;;;;28.80;19.27;;;-5.60;99.90;;;;;;5086401;28;20463;-74
2022/01/22 10:42:49;;;;;;;25.70;18.10;;;-5.70;99.90;;;;;;5090608;28;20221;-77
2022/01/22 10:45:24;;;;;;;24.93;18.17;;;-4.90;99.90;;;;;;5086989;28;20566;-77
2022/01/22 10:48:10;;;;;;;29.67;19.13;;;-4.10;99.90;;;;;;5085221;28;20182;-76
2022/01/22 10:50:36;;;;;;;22.93;18.07;;;-6.10;99.90;;;;;;5093056;28;20185;-77
2022/01/22 10:53:02;;;;;;;23.97;18.70;;;-6.20;99.90;;;;;;5086818;28;20167;-76
2022/01/22 10:55:28;;;;;;;26.90;18.37;;;-6.00;99.90;;;;;;5090824;28;20556;-80
2022/01/22 10:58:12;;;;;;;25.50;19.40;;;-4.40;99.90;;;;;;5097204;28;20175;-75
2022/01/22 11:00:38;;;;;;;24.63;20.13;;;-5.30;99.90;;;;;;5088990;28;20220;-76
2022/01/22 11:03:26;;;;;;;23.40;19.03;;;-5.50;99.90;;;;;;5086794;28;20175;-78
2022/01/22 11:05:52;;;;;;;21.60;17.70;;;-5.90;99.90;;;;;;5082424;28;20222;-78
2022/01/22 11:08:18;;;;;;;31.17;19.90;;;-4.60;99.90;;;;;;5084087;28;20174;-74
2022/01/22 11:10:45;;;;;;;24.23;18.70;;;-5.70;99.90;;;;;;5087333;28;20171;-74
2022/01/22 11:13:11;;;;;;;25.13;18.57;;;-4.20;99.90;;;;;;5089470;28;20605;-77
2022/01/22 11:15:39;;;;;;;26.13;18.87;;;-5.70;99.90;;;;;;5089598;28;20256;-74
2022/01/22 11:18:07;;;;;;;24.97;18.83;;;-5.40;99.90;;;;;;5087990;28;20171;-82
2022/01/22 11:20:33;;;;;;;27.13;19.67;;;-5.40;99.90;;;;;;5087430;28;20172;-76
2022/01/22 11:23:00;;;;;;;27.53;18.83;;;-5.40;99.90;;;;;;5089647;28;20203;-76
2022/01/22 11:25:26;;;;;;;24.17;16.93;;;-4.60;99.90;;;;;;5090422;28;20202;-76
2022/01/22 11:27:53;;;;;;;27.03;18.53;;;-5.90;99.90;;;;;;5088693;28;20586;-75
2022/01/22 11:30:25;;;;;;;33.53;23.33;;;-5.60;99.90;;;;;;5080700;28;20183;-75
2022/01/22 11:33:12;;;;;;;29.90;18.73;;;-5.50;99.90;;;;;;5088829;28;20170;-77
2022/01/22 11:35:54;;;;;;;24.07;16.77;;;-4.90;99.90;;;;;;5081782;28;20213;-77
2022/01/22 11:38:28;;;;;;;27.03;17.20;;;-4.30;99.90;;;;;;5088920;28;20195;-75
2022/01/22 11:41:05;;;;;;;22.87;17.13;;;-5.70;99.90;;;;;;5094475;28;20177;-75
2022/01/22 11:44:16;;;;;;;19.17;15.40;;;-5.30;99.90;;;;;;5097691;28;20197;-75
2022/01/22 11:46:59;;;;;;;27.10;17.53;;;-5.30;99.90;;;;;;5077428;28;20201;-80
2022/01/22 11:49:31;;;;;;;22.10;16.63;;;-3.90;99.90;;;;;;5079510;28;20174;-73
2022/01/22 11:52:13;;;;;;;22.00;16.53;;;-5.10;99.90;;;;;;5091337;28;20168;-75
2022/01/22 11:55:07;;;;;;;34.73;18.83;;;-5.30;99.90;;;;;;5076735;28;20477;-74
2022/01/22 11:57:34;;;;;;;27.80;20.20;;;-5.50;99.90;;;;;;5079999;28;20181;-74
2022/01/22 12:00:18;;;;;;;36.80;20.17;;;-5.50;99.90;;;;;;5092814;28;20175;-74
2022/01/22 12:02:45;;;;;;;26.53;19.37;;;-6.00;99.90;;;;;;5094150;28;20185;-76
2022/01/22 12:05:11;;;;;;;25.57;20.30;;;-6.30;99.90;;;;;;5086668;28;20181;-80
2022/01/22 12:07:37;;;;;;;25.33;18.30;;;-5.90;99.90;;;;;;5093359;28;20212;-74
2022/01/22 12:15:31;;;;;;;173.03;31.63;;;-3.90;99.90;;;;;;5076727;28;20308;-72
2022/01/22 12:18:13;;;;;;;119.83;28.27;;;-4.70;99.90;;;;;;5076240;28;20179;-73
2022/01/22 12:23:40;;;;;;;40.50;18.13;;;-4.80;99.90;;;;;;5076325;28;20328;-71
2022/01/22 12:26:06;;;;;;;23.23;17.73;;;-4.70;99.90;;;;;;5072858;28;20298;-75
2022/01/22 12:28:41;;;;;;;65.53;20.93;;;-5.00;99.90;;;;;;5085484;28;20580;-73
2022/01/22 12:31:16;;;;;;;61.90;20.63;;;-4.80;99.90;;;;;;5084692;28;20185;-71
2022/01/22 12:33:43;;;;;;;37.87;22.63;;;-4.00;99.90;;;;;;5097300;28;20198;-72
2022/01/22 12:36:17;;;;;;;40.33;17.83;;;-4.80;99.90;;;;;;5096346;28;20182;-72
2022/01/22 12:38:49;;;;;;;75.70;22.47;;;-4.50;99.90;;;;;;5088335;28;20191;-76
2022/01/22 12:44:13;;;;;;;31.73;22.10;;;-4.50;99.90;;;;;;5092401;28;20258;-74
2022/01/22 12:46:39;;;;;;;31.67;21.40;;;-4.20;99.90;;;;;;5097284;28;20187;-74
2022/01/22 12:49:08;;;;;;;29.77;19.47;;;-3.40;99.90;;;;;;5097542;28;20159;-74
2022/01/22 12:51:35;;;;;;;52.80;22.37;;;-4.00;99.90;;;;;;5097253;28;20399;-73
2022/01/22 12:54:02;;;;;;;41.93;22.50;;;-3.90;99.90;;;;;;5096449;28;20216;-72
2022/01/22 12:59:07;;;;;;;27.53;21.03;;;-4.10;99.90;;;;;;5097223;28;20170;-71
2022/01/22 13:01:34;;;;;;;35.77;24.40;;;-3.40;99.90;;;;;;5097033;28;20163;-73
2022/01/22 13:04:03;;;;;;;31.77;20.27;;;-4.40;99.90;;;;;;5096369;28;20186;-72
2022/01/22 13:06:46;;;;;;;37.10;22.07;;;-2.80;99.90;;;;;;5095267;28;20225;-72
2022/01/22 13:09:13;;;;;;;29.77;22.27;;;-4.60;99.90;;;;;;5097333;28;20647;-73
2022/01/22 13:11:47;;;;;;;57.13;23.50;;;-3.00;99.90;;;;;;5097270;28;20170;-75
2022/01/22 13:14:28;;;;;;;49.80;24.00;;;-4.80;99.90;;;;;;5097022;28;20491;-73
2022/01/22 13:16:55;;;;;;;27.83;20.57;;;-4.20;99.90;;;;;;5097701;28;20174;-72
2022/01/22 13:19:23;;;;;;;38.60;26.47;;;-4.60;99.90;;;;;;5096169;28;20171;-75
2022/01/22 13:21:54;;;;;;;34.17;23.33;;;-4.80;99.90;;;;;;5096843;28;20569;-74
2022/01/22 13:24:26;;;;;;;28.47;21.87;;;-4.50;99.90;;;;;;5096811;28;20574;-74
2022/01/22 13:27:02;;;;;;;32.53;22.70;;;-4.40;99.90;;;;;;5097033;28;20198;-72
2022/01/22 13:29:34;;;;;;;32.43;20.87;;;-4.20;99.90;;;;;;5095897;28;20170;-75
2022/01/22 13:35:28;;;;;;;33.87;22.13;;;-3.80;99.90;;;;;;5096973;28;20204;-72
2022/01/22 13:38:29;;;;;;;28.47;22.10;;;-4.10;99.90;;;;;;5096276;28;20609;-73
2022/01/22 13:49:02;;;;;;;24.37;19.03;;;-4.30;99.90;;;;;;5097784;28;20177;-78
2022/01/22 13:51:29;;;;;;;27.23;20.57;;;-4.70;99.90;;;;;;5096361;28;20491;-72
2022/01/22 13:54:00;;;;;;;31.80;22.30;;;-4.50;99.90;;;;;;5096623;28;20420;-77
2022/01/22 13:56:55;;;;;;;27.27;19.83;;;-4.60;99.90;;;;;;5097544;28;20163;-75
2022/01/22 13:59:24;;;;;;;31.97;20.43;;;-4.60;99.90;;;;;;5097653;28;20430;-77
2022/01/22 14:02:07;;;;;;;39.30;20.83;;;-4.50;99.90;;;;;;5096837;28;20256;-72
2022/01/22 14:04:42;;;;;;;30.03;20.47;;;-4.50;99.90;;;;;;5096856;28;20197;-73
2022/01/22 14:07:27;;;;;;;28.77;22.73;;;-4.60;99.90;;;;;;5096432;28;20488;-73
2022/01/22 14:09:54;;;;;;;31.53;21.63;;;-4.70;99.90;;;;;;5096803;28;20174;-73
2022/01/22 14:12:20;;;;;;;33.73;21.00;;;-4.10;99.90;;;;;;5095947;28;20159;-72
2022/01/22 14:15:02;;;;;;;29.70;20.83;;;-5.00;99.90;;;;;;5096127;28;20395;-75
2022/01/22 14:17:36;;;;;;;28.47;20.47;;;-4.60;99.90;;;;;;5100560;28;20409;-73
2022/01/22 14:20:12;;;;;;;31.27;20.73;;;-4.00;99.90;;;;;;5100614;28;20440;-73
2022/01/22 14:23:16;;;;;;;25.47;21.30;;;-4.30;99.90;;;;;;5098800;28;20413;-74
2022/01/22 14:26:04;;;;;;;28.47;21.80;;;-4.10;99.90;;;;;;5100554;28;20184;-76
2022/01/22 14:28:50;;;;;;;28.83;20.67;;;-3.90;99.90;;;;;;5100604;28;20200;-78
2022/01/22 14:31:53;;;;;;;27.77;21.10;;;-3.60;99.90;;;;;;5084721;28;20410;-73
2022/01/22 14:34:46;;;;;;;30.00;21.60;;;-3.30;99.90;;;;;;5099660;28;20173;-72
2022/01/22 14:37:31;;;;;;;27.90;21.50;;;-2.10;99.90;;;;;;5099768;28;20163;-73
2022/01/22 14:45:30;;;;;;;27.43;20.10;;;-4.20;99.90;;;;;;5100010;28;20223;-73
2022/01/22 14:47:58;;;;;;;27.70;21.47;;;-4.20;99.90;;;;;;5099220;28;20512;-73
2022/01/22 14:50:28;;;;;;;32.97;21.70;;;-3.70;99.90;;;;;;5100925;28;20200;-74
2022/01/22 14:52:59;;;;;;;30.10;23.03;;;-3.80;99.90;;;;;;5098421;28;20445;-78
2022/01/22 14:55:27;;;;;;;29.27;21.97;;;-3.70;99.90;;;;;;5099971;28;20212;-75
2022/01/22 14:57:54;;;;;;;32.93;21.73;;;-4.00;99.90;;;;;;5099814;28;20165;-76